Time;durP1;ratioP1;P1;durP2;ratioP2;P2;SDS_P1;SDS_P2;PMS_P1;PMS_P2;Temp;Humidity;BMP_temperature;BMP_pressure;BME280_temperature;BME280_humidity;BME280_pressure;Samples;Min_cycle;Max_cycle;Signal;HPM_P1;HPM_P2
2022/12/31 00:01:20;;;;;;;7.78;5.38;;;;;;;;;;5110803;27;20015;-73
2022/12/31 00:03:46;;;;;;;15.10;4.90;;;;;;;;;;5111003;27;20080;-73
2022/12/31 00:06:17;;;;;;;8.50;5.00;;;;;;;;;;5109539;27;20024;-73
2022/12/31 00:08:44;;;;;;;6.93;4.90;;;;;;;;;;5113189;27;20051;-74
2022/12/31 00:11:10;;;;;;;8.00;5.13;;;;;;;;;;5107351;27;20023;-75
2022/12/31 00:13:37;;;;;;;8.82;5.22;;;;;;;;;;5122580;27;20510;-74
2022/12/31 00:16:07;;;;;;;10.77;5.63;;;;;;;;;;5111424;27;20134;-74
2022/12/31 00:18:33;;;;;;;7.45;5.88;;;;;;;;;;5110148;27;20019;-74
2022/12/31 00:21:00;;;;;;;11.60;5.97;;;;;;;;;;5107036;27;20025;-74
2022/12/31 00:23:27;;;;;;;10.23;5.78;;;;;;;;;;5114680;27;20026;-74
2022/12/31 00:25:53;;;;;;;10.65;5.90;;;;;;;;;;5116111;27;20039;-74
2022/12/31 00:28:19;;;;;;;9.70;5.63;;;;;;;;;;5113234;27;20495;-73
2022/12/31 00:30:45;;;;;;;8.85;5.68;;;;;;;;;;5109592;27;20031;-73
2022/12/31 00:33:11;;;;;;;8.02;5.45;;;;;;;;;;5107638;27;20029;-73
2022/12/31 00:35:37;;;;;;;8.93;5.85;;;;;;;;;;5109828;27;20023;-74
2022/12/31 00:38:04;;;;;;;9.63;5.22;;;;;;;;;;5113882;27;20051;-73
2022/12/31 00:40:30;;;;;;;13.50;5.50;;;;;;;;;;5107292;27;20024;-74
2022/12/31 00:42:56;;;;;;;9.00;5.40;;;;;;;;;;5106122;27;20016;-74
2022/12/31 00:45:22;;;;;;;8.88;5.88;;;;;;;;;;5119086;27;20019;-73
2022/12/31 00:47:48;;;;;;;7.65;5.25;;;;;;;;;;5125254;27;20019;-73
2022/12/31 00:50:14;;;;;;;8.27;5.28;;;;;;;;;;5116044;27;20060;-74
2022/12/31 00:52:40;;;;;;;8.55;5.05;;;;;;;;;;5110450;27;20028;-73
2022/12/31 00:55:07;;;;;;;11.18;5.22;;;;;;;;;;5107979;27;20044;-74
2022/12/31 00:57:33;;;;;;;6.95;5.00;;;;;;;;;;5115117;27;20023;-73
2022/12/31 00:59:59;;;;;;;7.57;5.38;;;;;;;;;;5115458;27;20020;-74
2022/12/31 01:02:25;;;;;;;9.05;5.88;;;;;;;;;;5108654;27;20034;-73
2022/12/31 01:04:52;;;;;;;13.15;6.40;;;;;;;;;;5107143;27;20015;-74
2022/12/31 01:07:18;;;;;;;9.25;5.18;;;;;;;;;;5108669;27;20036;-73
2022/12/31 01:09:44;;;;;;;8.77;5.43;;;;;;;;;;5111257;27;20463;-73
2022/12/31 01:12:10;;;;;;;6.75;5.70;;;;;;;;;;5110984;27;20095;-74
2022/12/31 01:14:37;;;;;;;8.40;5.53;;;;;;;;;;5106987;27;20016;-74
2022/12/31 01:17:03;;;;;;;10.82;4.60;;;;;;;;;;5107672;27;20513;-75
2022/12/31 01:19:29;;;;;;;6.10;4.57;;;;;;;;;;5114887;27;20402;-74
2022/12/31 01:21:56;;;;;;;9.52;4.53;;;;;;;;;;5114581;27;20026;-74
2022/12/31 01:24:22;;;;;;;8.85;5.15;;;;;;;;;;5116133;27;20019;-74
2022/12/31 01:26:50;;;;;;;12.63;5.00;;;;;;;;;;5111862;27;20039;-74
2022/12/31 01:29:16;;;;;;;6.78;4.40;;;;;;;;;;5113149;27;20054;-74
2022/12/31 01:31:42;;;;;;;6.55;4.13;;;;;;;;;;5122568;27;20576;-73
2022/12/31 01:34:09;;;;;;;5.72;3.83;;;;;;;;;;5116888;27;20138;-74
2022/12/31 01:36:36;;;;;;;9.45;4.22;;;;;;;;;;5115443;27;20046;-74
2022/12/31 01:39:04;;;;;;;7.70;3.70;;;;;;;;;;5112954;27;20084;-74
2022/12/31 01:41:31;;;;;;;9.13;3.65;;;;;;;;;;5118027;27;20026;-73
2022/12/31 01:43:59;;;;;;;7.20;3.88;;;;;;;;;;5121588;27;20390;-75
2022/12/31 01:46:36;;;;;;;6.38;3.20;;;;;;;;;;5114176;27;20098;-74
2022/12/31 01:49:23;;;;;;;5.47;3.03;;;;;;;;;;5111049;27;20050;-75
2022/12/31 01:51:54;;;;;;;7.78;3.13;;;;;;;;;;5093575;27;20035;-74
2022/12/31 01:54:21;;;;;;;5.15;3.38;;;;;;;;;;5118241;27;20030;-73
2022/12/31 01:56:49;;;;;;;6.63;2.90;;;;;;;;;;5111124;27;20020;-73
2022/12/31 01:59:17;;;;;;;4.90;3.45;;;;;;;;;;5112491;27;20049;-73
2022/12/31 02:01:45;;;;;;;4.50;2.55;;;;;;;;;;5113326;27;20393;-75
2022/12/31 02:04:13;;;;;;;6.85;2.40;;;;;;;;;;5123653;27;20035;-72
2022/12/31 02:06:39;;;;;;;5.43;3.25;;;;;;;;;;5115498;27;20732;-74
2022/12/31 02:09:05;;;;;;;5.47;2.78;;;;;;;;;;5113641;27;20027;-74
2022/12/31 02:11:35;;;;;;;5.95;2.70;;;;;;;;;;5110689;27;20214;-74
2022/12/31 02:14:09;;;;;;;8.15;3.40;;;;;;;;;;5112423;27;20019;-75
2022/12/31 02:16:40;;;;;;;5.07;2.70;;;;;;;;;;5114763;27;20030;-73
2022/12/31 02:19:25;;;;;;;4.55;2.95;;;;;;;;;;5112519;27;20032;-73
2022/12/31 02:22:10;;;;;;;6.50;3.05;;;;;;;;;;5112330;27;20023;-74
2022/12/31 02:24:54;;;;;;;6.47;2.90;;;;;;;;;;5113081;27;20024;-73
2022/12/31 02:27:32;;;;;;;7.65;2.63;;;;;;;;;;5122761;27;20029;-75
2022/12/31 02:30:05;;;;;;;4.32;2.47;;;;;;;;;;5114267;27;20031;-74
2022/12/31 02:32:37;;;;;;;4.80;2.50;;;;;;;;;;5111579;27;20024;-74
2022/12/31 02:35:09;;;;;;;5.38;2.95;;;;;;;;;;5110332;27;20080;-73
2022/12/31 02:37:35;;;;;;;;;;;;;;;;;;5112014;27;20035;-73
2022/12/31 02:40:02;;;;;;;5.10;2.58;;;;;;;;;;5113515;27;19942;-74
2022/12/31 02:42:28;;;;;;;3.25;1.92;;;;;;;;;;5113917;27;20023;-73
2022/12/31 02:44:54;;;;;;;4.97;1.95;;;;;;;;;;5112383;27;20020;-74
2022/12/31 02:47:25;;;;;;;3.55;1.90;;;;;;;;;;5110049;27;20019;-73
2022/12/31 02:49:51;;;;;;;5.13;2.33;;;;;;;;;;5122048;27;20038;-74
2022/12/31 02:52:20;;;;;;;5.43;2.40;;;;;;;;;;5114703;27;20471;-74
2022/12/31 02:55:05;;;;;;;8.25;2.78;;;;;;;;;;5112130;27;20019;-74
2022/12/31 02:57:37;;;;;;;3.20;2.13;;;;;;;;;;5110518;27;20027;-75
2022/12/31 03:02:51;;;;;;;4.85;2.00;;;;;;;;;;5120262;27;20050;-73
2022/12/31 03:05:19;;;;;;;4.47;1.60;;;;;;;;;;5116308;27;20098;-74
2022/12/31 03:07:45;;;;;;;6.30;1.80;;;;;;;;;;5109666;27;20027;-74
2022/12/31 03:10:11;;;;;;;4.13;1.55;;;;;;;;;;5110950;27;20020;-73
2022/12/31 03:12:47;;;;;;;5.32;1.48;;;;;;;;;;5120327;27;20035;-74
2022/12/31 03:15:21;;;;;;;6.22;1.80;;;;;;;;;;5113432;27;20030;-73
2022/12/31 03:17:50;;;;;;;4.60;1.90;;;;;;;;;;5114688;27;20447;-75
2022/12/31 03:23:03;;;;;;;4.65;1.83;;;;;;;;;;5109951;27;20074;-73
2022/12/31 03:25:33;;;;;;;4.65;1.95;;;;;;;;;;5113556;27;20027;-74
2022/12/31 03:28:01;;;;;;;5.78;2.10;;;;;;;;;;5107993;27;20016;-74
2022/12/31 03:30:27;;;;;;;4.90;1.83;;;;;;;;;;5111709;27;20382;-74
2022/12/31 03:32:55;;;;;;;4.72;2.13;;;;;;;;;;5107648;27;20494;-72
2022/12/31 03:35:21;;;;;;;3.35;1.80;;;;;;;;;;5116109;27;20785;-74
2022/12/31 03:37:48;;;;;;;3.70;2.00;;;;;;;;;;5112279;27;20031;-75
2022/12/31 03:40:15;;;;;;;7.18;2.42;;;;;;;;;;5109891;27;20023;-74
2022/12/31 03:42:41;;;;;;;4.78;2.30;;;;;;;;;;5113453;27;20127;-74
2022/12/31 03:45:08;;;;;;;5.82;2.15;;;;;;;;;;5119923;27;20019;-73
2022/12/31 03:47:35;;;;;;;5.63;2.17;;;;;;;;;;5110610;27;20027;-73
2022/12/31 03:50:01;;;;;;;6.70;2.38;;;;;;;;;;5110609;27;20384;-74
2022/12/31 03:52:27;;;;;;;4.70;2.05;;;;;;;;;;5112144;27;20039;-74
2022/12/31 03:54:53;;;;;;;8.80;2.10;;;;;;;;;;5106549;27;20030;-74
2022/12/31 03:57:19;;;;;;;6.75;2.42;;;;;;;;;;5115346;27;20032;-74
2022/12/31 03:59:45;;;;;;;8.68;2.35;;;;;;;;;;5111899;27;20039;-74
2022/12/31 04:02:12;;;;;;;5.15;1.83;;;;;;;;;;5110056;27;20024;-73
2022/12/31 04:04:38;;;;;;;5.45;2.28;;;;;;;;;;5110303;27;20023;-73
2022/12/31 04:07:04;;;;;;;5.65;2.40;;;;;;;;;;5117504;27;20075;-73
2022/12/31 04:09:30;;;;;;;12.00;2.75;;;;;;;;;;5114730;27;20616;-73
2022/12/31 04:11:56;;;;;;;7.15;2.80;;;;;;;;;;5107377;27;20024;-74
2022/12/31 04:14:22;;;;;;;6.95;2.78;;;;;;;;;;5116778;27;20104;-73
2022/12/31 04:16:48;;;;;;;6.05;2.15;;;;;;;;;;5104936;27;20024;-73
2022/12/31 04:19:15;;;;;;;4.88;2.20;;;;;;;;;;5109038;27;20026;-74
2022/12/31 04:21:41;;;;;;;4.35;2.20;;;;;;;;;;5110524;27;20100;-73
2022/12/31 04:24:07;;;;;;;8.98;2.80;;;;;;;;;;5107624;27;20027;-74
2022/12/31 04:26:34;;;;;;;8.32;2.65;;;;;;;;;;5107387;27;20052;-74
2022/12/31 04:29:00;;;;;;;9.73;2.45;;;;;;;;;;5104494;27;20047;-74
2022/12/31 04:31:26;;;;;;;5.63;2.55;;;;;;;;;;5109545;27;20524;-73
2022/12/31 04:33:52;;;;;;;9.90;2.22;;;;;;;;;;5107430;27;20912;-74
2022/12/31 04:36:19;;;;;;;5.35;2.55;;;;;;;;;;5107326;27;20030;-74
2022/12/31 04:38:45;;;;;;;7.15;2.35;;;;;;;;;;5106443;27;20052;-74
2022/12/31 04:41:17;;;;;;;6.43;2.50;;;;;;;;;;5114780;27;20129;-73
2022/12/31 04:43:46;;;;;;;4.50;2.15;;;;;;;;;;5109417;27;20154;-73
2022/12/31 04:46:12;;;;;;;6.28;2.53;;;;;;;;;;5105536;27;20024;-74
2022/12/31 04:48:39;;;;;;;6.55;2.55;;;;;;;;;;5108601;27;20037;-74
2022/12/31 04:51:05;;;;;;;6.07;2.50;;;;;;;;;;5102871;27;20023;-73
2022/12/31 04:53:31;;;;;;;4.45;2.00;;;;;;;;;;5118313;27;20035;-73
2022/12/31 04:55:57;;;;;;;8.43;2.17;;;;;;;;;;5107827;27;20026;-74
2022/12/31 04:58:24;;;;;;;6.82;2.30;;;;;;;;;;5106309;27;20027;-73
2022/12/31 05:00:53;;;;;;;5.03;2.83;;;;;;;;;;5107948;27;20020;-73
2022/12/31 05:03:20;;;;;;;5.20;2.72;;;;;;;;;;5118385;27;20026;-73
2022/12/31 05:05:46;;;;;;;5.03;2.67;;;;;;;;;;5113690;27;20015;-73
2022/12/31 05:08:13;;;;;;;8.80;2.85;;;;;;;;;;5109400;27;20172;-74
2022/12/31 05:10:46;;;;;;;7.43;2.80;;;;;;;;;;5108566;27;20416;-74
2022/12/31 05:13:13;;;;;;;10.50;3.10;;;;;;;;;;5105011;27;20038;-73
2022/12/31 05:15:39;;;;;;;7.82;2.67;;;;;;;;;;5120538;27;20390;-74
2022/12/31 05:18:06;;;;;;;4.45;2.67;;;;;;;;;;5110080;27;20016;-73
2022/12/31 05:20:32;;;;;;;4.65;2.65;;;;;;;;;;5107540;27;20034;-73
2022/12/31 05:22:58;;;;;;;5.63;2.80;;;;;;;;;;5112001;27;20451;-74
2022/12/31 05:25:25;;;;;;;7.63;3.35;;;;;;;;;;5103405;27;20076;-74
2022/12/31 05:27:51;;;;;;;5.20;2.45;;;;;;;;;;5111948;27;20027;-74
2022/12/31 05:30:17;;;;;;;7.47;3.00;;;;;;;;;;5106256;27;20035;-74
2022/12/31 05:32:44;;;;;;;4.35;2.58;;;;;;;;;;5105113;27;20050;-73
2022/12/31 05:35:10;;;;;;;5.65;3.00;;;;;;;;;;5105208;27;20024;-74
2022/12/31 05:37:36;;;;;;;5.90;2.95;;;;;;;;;;5108493;27;21106;-75
2022/12/31 05:40:03;;;;;;;6.30;3.20;;;;;;;;;;5107941;27;20027;-74
2022/12/31 05:42:29;;;;;;;6.07;3.63;;;;;;;;;;5111208;27;20016;-73
2022/12/31 05:44:55;;;;;;;8.43;3.70;;;;;;;;;;5108985;27;20034;-74
2022/12/31 05:47:21;;;;;;;9.93;4.70;;;;;;;;;;5103618;27;20026;-74
2022/12/31 05:49:48;;;;;;;6.07;3.90;;;;;;;;;;5119129;27;20030;-73
2022/12/31 05:52:14;;;;;;;8.05;4.15;;;;;;;;;;5109590;27;20030;-74
2022/12/31 05:54:40;;;;;;;10.63;4.43;;;;;;;;;;5104436;27;20032;-74
2022/12/31 05:57:06;;;;;;;10.23;4.18;;;;;;;;;;5102366;27;20031;-74
2022/12/31 05:59:32;;;;;;;10.35;4.07;;;;;;;;;;5108221;27;20024;-74
2022/12/31 06:01:59;;;;;;;9.73;4.30;;;;;;;;;;5109666;27;20395;-74
2022/12/31 06:04:25;;;;;;;7.00;3.60;;;;;;;;;;5108789;27;20020;-74
2022/12/31 06:06:51;;;;;;;6.47;4.18;;;;;;;;;;5113472;27;20106;-75
2022/12/31 06:09:18;;;;;;;8.25;4.38;;;;;;;;;;5108896;27;20030;-75
2022/12/31 06:11:44;;;;;;;8.13;3.85;;;;;;;;;;5116793;27;20186;-74
2022/12/31 06:14:10;;;;;;;7.93;4.75;;;;;;;;;;5113056;27;20032;-75
2022/12/31 06:16:37;;;;;;;7.25;4.43;;;;;;;;;;5109681;27;20046;-75
2022/12/31 06:19:03;;;;;;;8.25;5.55;;;;;;;;;;5110707;27;20095;-74
2022/12/31 06:21:29;;;;;;;8.02;5.15;;;;;;;;;;5111187;27;20046;-74
2022/12/31 06:23:56;;;;;;;7.90;4.90;;;;;;;;;;5123682;27;20071;-74
2022/12/31 06:26:22;;;;;;;6.43;5.10;;;;;;;;;;5116283;27;20021;-74
2022/12/31 06:28:48;;;;;;;7.45;5.32;;;;;;;;;;5111408;27;20038;-73
2022/12/31 06:31:14;;;;;;;9.38;6.00;;;;;;;;;;5109073;27;20027;-74
2022/12/31 06:33:40;;;;;;;10.75;5.20;;;;;;;;;;5110128;27;20050;-73
2022/12/31 06:36:09;;;;;;;8.95;5.63;;;;;;;;;;5112677;27;20015;-74
2022/12/31 06:38:36;;;;;;;12.05;6.20;;;;;;;;;;5112878;27;20044;-73
2022/12/31 06:41:06;;;;;;;11.48;5.65;;;;;;;;;;5110615;27;20034;-74
2022/12/31 06:43:34;;;;;;;8.88;6.05;;;;;;;;;;5111151;27;20079;-74
2022/12/31 06:46:04;;;;;;;19.40;5.90;;;;;;;;;;5122819;27;20062;-74
2022/12/31 06:48:30;;;;;;;13.75;5.22;;;;;;;;;;5107976;27;20024;-74
2022/12/31 06:50:56;;;;;;;12.13;5.40;;;;;;;;;;5111940;27;20059;-72
2022/12/31 06:53:23;;;;;;;9.20;5.07;;;;;;;;;;5109649;27;20032;-74
2022/12/31 06:55:49;;;;;;;9.48;5.00;;;;;;;;;;5122627;27;20038;-73
2022/12/31 06:58:16;;;;;;;20.40;7.72;;;;;;;;;;5117304;27;20024;-73
2022/12/31 07:01:14;;;;;;;7.97;5.60;;;;;;;;;;5110006;27;20020;-74
2022/12/31 07:03:50;;;;;;;11.88;5.13;;;;;;;;;;5078765;27;20043;-75
2022/12/31 07:06:21;;;;;;;8.65;5.13;;;;;;;;;;5121639;27;20023;-74
2022/12/31 07:08:47;;;;;;;15.00;5.17;;;;;;;;;;5119299;27;20407;-74
2022/12/31 07:11:16;;;;;;;10.65;4.57;;;;;;;;;;5113981;27;20041;-74
2022/12/31 07:13:42;;;;;;;6.72;4.35;;;;;;;;;;5106564;27;20522;-74
2022/12/31 07:16:27;;;;;;;6.55;4.07;;;;;;;;;;5111440;27;20110;-74
2022/12/31 07:18:57;;;;;;;9.25;4.53;;;;;;;;;;5113019;27;20019;-75
2022/12/31 07:21:32;;;;;;;9.10;4.47;;;;;;;;;;5106893;27;20484;-74
2022/12/31 07:23:59;;;;;;;8.10;4.25;;;;;;;;;;5106893;27;20027;-74
2022/12/31 07:26:40;;;;;;;9.18;4.38;;;;;;;;;;5109157;27;20050;-74
2022/12/31 07:29:06;;;;;;;10.67;4.43;;;;;;;;;;5117719;27;20031;-74
2022/12/31 07:31:55;;;;;;;6.97;4.03;;;;;;;;;;5108147;27;20020;-74
2022/12/31 07:34:39;;;;;;;7.28;4.13;;;;;;;;;;5100219;27;20047;-73
2022/12/31 07:37:05;;;;;;;6.20;4.22;;;;;;;;;;5109859;27;20027;-75
2022/12/31 07:39:40;;;;;;;11.77;4.63;;;;;;;;;;5106582;27;20042;-74
2022/12/31 07:42:06;;;;;;;11.60;4.78;;;;;;;;;;5118369;27;20033;-74
2022/12/31 07:44:40;;;;;;;9.75;4.00;;;;;;;;;;5110834;27;20049;-73
2022/12/31 07:47:13;;;;;;;9.10;3.63;;;;;;;;;;5116309;27;20019;-74
2022/12/31 07:49:42;;;;;;;6.82;3.78;;;;;;;;;;5102481;27;20027;-75
2022/12/31 07:52:09;;;;;;;11.55;4.60;;;;;;;;;;5117313;27;20034;-74
2022/12/31 07:54:35;;;;;;;11.30;4.47;;;;;;;;;;5109141;27;20020;-75
2022/12/31 07:57:01;;;;;;;8.18;3.60;;;;;;;;;;5110637;27;20029;-74
2022/12/31 07:59:36;;;;;;;9.32;3.70;;;;;;;;;;5106687;27;20030;-74
2022/12/31 08:02:07;;;;;;;6.80;3.33;;;;;;;;;;5113976;27;20026;-74
2022/12/31 08:04:56;;;;;;;5.72;3.17;;;;;;;;;;5113109;27;20012;-74
2022/12/31 08:07:32;;;;;;;6.75;3.60;;;;;;;;;;5103698;27;20380;-75
2022/12/31 08:09:58;;;;;;;8.27;3.50;;;;;;;;;;5109264;27;20015;-74
2022/12/31 08:12:26;;;;;;;6.95;3.45;;;;;;;;;;5107078;27;20101;-74
2022/12/31 08:14:52;;;;;;;6.22;3.22;;;;;;;;;;5122695;27;20027;-74
2022/12/31 08:17:19;;;;;;;18.80;8.75;;;;;;;;;;5113887;27;20031;-74
2022/12/31 08:19:45;;;;;;;22.27;9.20;;;;;;;;;;5112908;27;20023;-73
2022/12/31 08:22:38;;;;;;;15.18;8.68;;;;;;;;;;5111146;27;20148;-76
2022/12/31 08:25:16;;;;;;;20.65;9.38;;;;;;;;;;5115627;27;20110;-80
2022/12/31 08:27:45;;;;;;;21.40;9.07;;;;;;;;;;5110631;27;20027;-77
2022/12/31 08:30:18;;;;;;;12.75;7.72;;;;;;;;;;5111283;27;20027;-76
2022/12/31 08:32:47;;;;;;;17.77;7.85;;;;;;;;;;5110487;27;20041;-75
2022/12/31 08:35:14;;;;;;;18.77;7.75;;;;;;;;;;5112346;27;20007;-74
2022/12/31 08:37:43;;;;;;;14.68;7.38;;;;;;;;;;5109766;27;20516;-74
2022/12/31 08:40:20;;;;;;;10.57;6.32;;;;;;;;;;5116215;27;20535;-74
2022/12/31 08:42:52;;;;;;;10.52;6.68;;;;;;;;;;5106788;27;20064;-74
2022/12/31 08:45:28;;;;;;;15.57;6.53;;;;;;;;;;5111599;27;20088;-74
2022/12/31 08:48:29;;;;;;;9.32;6.00;;;;;;;;;;5108941;27;20024;-75
2022/12/31 08:50:56;;;;;;;8.87;6.07;;;;;;;;;;5058673;28;20027;-75
2022/12/31 08:53:22;;;;;;;18.42;6.60;;;;;;;;;;5097687;27;20077;-75
2022/12/31 08:55:51;;;;;;;17.02;6.97;;;;;;;;;;5106981;27;20030;-74
2022/12/31 08:58:20;;;;;;;13.93;5.47;;;;;;;;;;5124573;27;20103;-74
2022/12/31 09:00:49;;;;;;;13.85;7.28;;;;;;;;;;5111253;27;20055;-76
2022/12/31 09:03:23;;;;;;;11.00;6.75;;;;;;;;;;5114158;27;20029;-74
2022/12/31 09:06:12;;;;;;;13.77;7.05;;;;;;;;;;5105200;27;20094;-74
2022/12/31 09:08:41;;;;;;;9.25;6.28;;;;;;;;;;5099781;27;20053;-74
2022/12/31 09:11:07;;;;;;;13.02;7.60;;;;;;;;;;5115271;27;20018;-75
2022/12/31 09:13:49;;;;;;;10.52;6.78;;;;;;;;;;5110494;27;20032;-75
2022/12/31 09:16:21;;;;;;;13.88;6.32;;;;;;;;;;5109620;27;20023;-74
2022/12/31 09:18:47;;;;;;;10.48;6.95;;;;;;;;;;5105287;27;20016;-74
2022/12/31 09:21:14;;;;;;;9.30;6.25;;;;;;;;;;5120200;27;20030;-74
2022/12/31 09:23:41;;;;;;;10.98;6.10;;;;;;;;;;5112395;27;20023;-76
2022/12/31 09:26:07;;;;;;;9.70;6.00;;;;;;;;;;5112221;27;20023;-74
2022/12/31 09:28:42;;;;;;;12.45;6.20;;;;;;;;;;5109741;27;20118;-74
2022/12/31 09:31:21;;;;;;;7.60;5.38;;;;;;;;;;5108454;27;20122;-75
2022/12/31 09:33:48;;;;;;;9.82;6.05;;;;;;;;;;5109616;27;20845;-74
2022/12/31 09:36:19;;;;;;;9.32;5.47;;;;;;;;;;5108746;27;20027;-75
2022/12/31 09:38:51;;;;;;;9.70;4.90;;;;;;;;;;5107646;27;20126;-75
2022/12/31 09:41:35;;;;;;;10.77;5.13;;;;;;;;;;5103518;27;20019;-74
2022/12/31 09:44:20;;;;;;;10.02;5.63;;;;;;;;;;5109531;27;20079;-74
2022/12/31 09:46:52;;;;;;;12.45;5.65;;;;;;;;;;5108318;27;20057;-75
2022/12/31 09:49:18;;;;;;;;;;;;;;;;;;5113357;27;20023;-74
2022/12/31 09:51:50;;;;;;;6.38;5.03;;;;;;;;;;5110210;27;19911;-75
2022/12/31 09:54:28;;;;;;;8.10;5.97;;;;;;;;;;5109569;27;20034;-74
2022/12/31 09:57:04;;;;;;;16.75;7.88;;;;;;;;;;5110848;27;20539;-74
2022/12/31 09:59:37;;;;;;;10.65;6.00;;;;;;;;;;5113424;27;20023;-75
2022/12/31 10:02:22;;;;;;;10.55;6.40;;;;;;;;;;5108105;27;20032;-74
2022/12/31 10:05:00;;;;;;;7.50;6.05;;;;;;;;;;5110293;27;20023;-74
2022/12/31 10:07:45;;;;;;;13.98;7.15;;;;;;;;;;5114658;27;20026;-75
2022/12/31 10:10:19;;;;;;;10.70;6.68;;;;;;;;;;5123455;27;20046;-73
2022/12/31 10:12:54;;;;;;;9.30;6.80;;;;;;;;;;5111137;27;20119;-75
2022/12/31 10:15:38;;;;;;;12.85;6.47;;;;;;;;;;5106555;27;20027;-74
2022/12/31 10:18:14;;;;;;;13.40;6.97;;;;;;;;;;5120121;27;20536;-75
2022/12/31 10:20:59;;;;;;;10.43;6.32;;;;;;;;;;5113090;27;20041;-75
2022/12/31 10:23:31;;;;;;;16.55;6.75;;;;;;;;;;5111344;27;20035;-75
2022/12/31 10:26:15;;;;;;;16.27;7.38;;;;;;;;;;5108926;27;20029;-74
2022/12/31 10:29:00;;;;;;;15.07;8.15;;;;;;;;;;5122038;27;20023;-75
2022/12/31 10:31:35;;;;;;;16.83;10.18;;;;;;;;;;5111880;27;20111;-74
2022/12/31 10:34:17;;;;;;;17.45;9.80;;;;;;;;;;5109525;27;20042;-76
2022/12/31 10:36:46;;;;;;;14.60;8.20;;;;;;;;;;5112416;27;20035;-74
2022/12/31 10:39:22;;;;;;;14.95;7.90;;;;;;;;;;5109704;27;20051;-75
2022/12/31 10:42:06;;;;;;;11.73;7.05;;;;;;;;;;5110180;27;20104;-74
2022/12/31 10:44:36;;;;;;;12.60;7.03;;;;;;;;;;5112076;27;20023;-75
2022/12/31 10:47:20;;;;;;;10.90;6.97;;;;;;;;;;5106366;27;20549;-75
2022/12/31 10:50:05;;;;;;;10.00;6.38;;;;;;;;;;5112189;27;20682;-74
2022/12/31 10:52:31;;;;;;;9.27;6.43;;;;;;;;;;5113619;27;20034;-74
2022/12/31 10:55:07;;;;;;;10.60;7.00;;;;;;;;;;5111555;27;20050;-73
2022/12/31 10:57:45;;;;;;;13.07;6.20;;;;;;;;;;5110350;27;20031;-75
2022/12/31 11:00:14;;;;;;;10.05;6.93;;;;;;;;;;5105658;27;20497;-74
2022/12/31 11:02:47;;;;;;;8.60;6.18;;;;;;;;;;5109957;27;20034;-75
2022/12/31 11:05:32;;;;;;;13.50;6.97;;;;;;;;;;5111318;27;20089;-74
2022/12/31 11:08:16;;;;;;;12.90;6.63;;;;;;;;;;5108666;27;20457;-74
2022/12/31 11:10:51;;;;;;;9.57;6.40;;;;;;;;;;5112050;27;20483;-74
2022/12/31 11:13:33;;;;;;;9.82;6.68;;;;;;;;;;5109516;27;20046;-75
2022/12/31 11:15:59;;;;;;;14.73;6.55;;;;;;;;;;5111901;27;20020;-75
2022/12/31 11:18:25;;;;;;;9.05;6.00;;;;;;;;;;5109666;27;20467;-75
2022/12/31 11:20:55;;;;;;;12.70;6.72;;;;;;;;;;5106118;27;20044;-74
2022/12/31 11:23:40;;;;;;;12.60;6.75;;;;;;;;;;5107936;27;20486;-74
2022/12/31 11:26:24;;;;;;;10.57;6.43;;;;;;;;;;5118991;27;20248;-74
2022/12/31 11:28:58;;;;;;;13.57;7.10;;;;;;;;;;5111061;27;20020;-74
2022/12/31 11:31:40;;;;;;;14.27;7.40;;;;;;;;;;5109186;27;20602;-74
2022/12/31 11:34:25;;;;;;;10.38;6.03;;;;;;;;;;5104559;27;20031;-74
2022/12/31 11:37:05;;;;;;;14.15;6.63;;;;;;;;;;5110312;27;20878;-74
2022/12/31 11:39:34;;;;;;;12.13;6.30;;;;;;;;;;5110049;27;20077;-74
2022/12/31 11:42:23;;;;;;;13.30;6.03;;;;;;;;;;5106038;27;20076;-74
2022/12/31 11:44:55;;;;;;;9.35;6.55;;;;;;;;;;5111396;27;20027;-75
2022/12/31 11:47:27;;;;;;;9.45;6.28;;;;;;;;;;5115183;27;20412;-74
2022/12/31 11:50:15;;;;;;;10.90;6.50;;;;;;;;;;5108665;27;20509;-74
2022/12/31 11:52:48;;;;;;;10.68;6.60;;;;;;;;;;5119645;27;20023;-76
2022/12/31 11:55:29;;;;;;;7.32;5.85;;;;;;;;;;5105641;27;20067;-73
2022/12/31 11:57:58;;;;;;;14.90;6.75;;;;;;;;;;5112295;27;20034;-74
2022/12/31 12:00:26;;;;;;;8.80;5.82;;;;;;;;;;5114148;27;20037;-74
2022/12/31 12:02:57;;;;;;;14.02;6.45;;;;;;;;;;5110513;27;20016;-74
2022/12/31 12:05:24;;;;;;;10.15;6.20;;;;;;;;;;5108933;27;20411;-74
2022/12/31 12:07:51;;;;;;;9.38;6.70;;;;;;;;;;5106067;27;20080;-74
2022/12/31 12:10:26;;;;;;;10.35;6.38;;;;;;;;;;5109467;27;20026;-74
2022/12/31 12:12:54;;;;;;;9.88;6.05;;;;;;;;;;5111267;27;20121;-74
2022/12/31 12:15:31;;;;;;;7.28;5.88;;;;;;;;;;5107768;27;20027;-75
2022/12/31 12:18:00;;;;;;;9.82;6.45;;;;;;;;;;5109393;27;20390;-74
2022/12/31 12:20:35;;;;;;;7.57;5.93;;;;;;;;;;5115301;27;20068;-74
2022/12/31 12:23:12;;;;;;;11.32;6.38;;;;;;;;;;5112044;27;20032;-74
2022/12/31 12:25:40;;;;;;;10.60;6.40;;;;;;;;;;5109985;27;20605;-73
2022/12/31 12:28:24;;;;;;;10.10;6.70;;;;;;;;;;5108598;27;20027;-74
2022/12/31 12:30:54;;;;;;;11.57;6.65;;;;;;;;;;5123662;27;20079;-74
2022/12/31 12:33:21;;;;;;;10.32;6.32;;;;;;;;;;5109533;27;20039;-74
2022/12/31 12:35:47;;;;;;;15.02;6.45;;;;;;;;;;5109289;27;20020;-75
2022/12/31 12:38:16;;;;;;;10.27;6.40;;;;;;;;;;5107345;27;20039;-74
2022/12/31 12:40:51;;;;;;;10.32;6.40;;;;;;;;;;5105157;27;20058;-74
2022/12/31 12:43:21;;;;;;;11.95;6.90;;;;;;;;;;5109897;27;20032;-74
2022/12/31 12:45:48;;;;;;;10.93;6.55;;;;;;;;;;5120308;27;20613;-74
2022/12/31 12:48:19;;;;;;;12.68;7.15;;;;;;;;;;5106453;27;20032;-74
2022/12/31 12:50:46;;;;;;;8.18;6.07;;;;;;;;;;5103210;27;20019;-74
2022/12/31 12:53:24;;;;;;;9.98;5.93;;;;;;;;;;5113508;27;20030;-74
2022/12/31 12:55:50;;;;;;;11.25;6.50;;;;;;;;;;5112180;27;20047;-75
2022/12/31 12:58:16;;;;;;;9.82;6.05;;;;;;;;;;5107706;27;20024;-74
2022/12/31 13:00:48;;;;;;;10.27;6.78;;;;;;;;;;5108967;27;20027;-74
2022/12/31 13:03:14;;;;;;;;;;;;;;;;;;5103247;27;20092;-75
2022/12/31 13:05:46;;;;;;;8.07;5.68;;;;;;;;;;5110432;27;20012;-75
2022/12/31 13:08:12;;;;;;;;;;;;;;;;;;5113839;27;20029;-74
2022/12/31 13:10:59;;;;;;;7.18;5.60;;;;;;;;;;5106910;27;19916;-77
2022/12/31 13:13:30;;;;;;;8.18;6.15;;;;;;;;;;5106886;27;20043;-76
2022/12/31 13:16:03;;;;;;;8.17;6.27;;;;;;;;;;5106679;27;20023;-76
2022/12/31 13:18:47;;;;;;;10.40;7.25;;;;;;;;;;5116314;27;20190;-77
2022/12/31 13:21:27;;;;;;;8.77;6.13;;;;;;;;;;5109729;27;20165;-75
2022/12/31 13:23:56;;;;;;;9.63;6.50;;;;;;;;;;5106731;27;20023;-76
2022/12/31 13:26:41;;;;;;;12.18;6.47;;;;;;;;;;5101264;27;20023;-77
2022/12/31 13:29:08;;;;;;;12.00;6.63;;;;;;;;;;5119948;27;20069;-76
2022/12/31 13:31:37;;;;;;;8.52;6.60;;;;;;;;;;5110084;27;20543;-77
2022/12/31 13:34:10;;;;;;;10.23;6.30;;;;;;;;;;5109200;27;20042;-76
2022/12/31 13:36:39;;;;;;;12.05;6.60;;;;;;;;;;5102601;27;20621;-75
2022/12/31 13:39:07;;;;;;;10.55;6.22;;;;;;;;;;5116424;27;20047;-77
2022/12/31 13:41:39;;;;;;;10.23;7.25;;;;;;;;;;5109258;27;20670;-75
2022/12/31 13:44:17;;;;;;;10.30;6.47;;;;;;;;;;5104439;27;20024;-76
2022/12/31 13:46:46;;;;;;;9.48;6.72;;;;;;;;;;5104322;27;20028;-76
2022/12/31 13:49:30;;;;;;;12.48;6.78;;;;;;;;;;5104218;27;20063;-77
2022/12/31 13:51:59;;;;;;;9.68;6.90;;;;;;;;;;5117378;27;20479;-76
2022/12/31 13:54:48;;;;;;;14.02;6.65;;;;;;;;;;5107814;27;20742;-76
2022/12/31 13:57:18;;;;;;;14.13;6.63;;;;;;;;;;5105722;27;20026;-78
2022/12/31 13:59:48;;;;;;;16.30;7.43;;;;;;;;;;5108659;27;20023;-77
2022/12/31 14:02:31;;;;;;;19.42;8.25;;;;;;;;;;5113183;27;20102;-80
2022/12/31 14:05:27;;;;;;;17.42;7.43;;;;;;;;;;5109191;27;20031;-77
2022/12/31 14:07:54;;;;;;;11.90;7.55;;;;;;;;;;5091122;27;20039;-77
2022/12/31 14:10:24;;;;;;;20.52;7.35;;;;;;;;;;5104939;27;20060;-76
2022/12/31 14:12:59;;;;;;;21.63;7.18;;;;;;;;;;5105361;27;20503;-76
2022/12/31 14:15:31;;;;;;;13.00;6.63;;;;;;;;;;5109484;27;20521;-75
2022/12/31 14:18:02;;;;;;;12.60;7.15;;;;;;;;;;5109168;27;20386;-76
2022/12/31 14:20:28;;;;;;;;;;;;;;;;;;5106591;27;20724;-78
2022/12/31 14:23:10;;;;;;;9.32;7.25;;;;;;;;;;5109513;27;19947;-79
2022/12/31 14:25:56;;;;;;;10.20;6.95;;;;;;;;;;5107264;27;20022;-78
2022/12/31 14:28:43;;;;;;;16.00;7.22;;;;;;;;;;5106359;27;20020;-76
2022/12/31 14:31:29;;;;;;;14.27;7.57;;;;;;;;;;5111029;27;20027;-77
2022/12/31 14:34:05;;;;;;;13.68;7.78;;;;;;;;;;5116896;27;21407;-78
2022/12/31 14:36:31;;;;;;;19.65;7.60;;;;;;;;;;5112186;27;20552;-82
2022/12/31 14:39:07;;;;;;;10.40;6.43;;;;;;;;;;5118555;27;20039;-77
2022/12/31 14:41:33;;;;;;;13.05;7.20;;;;;;;;;;5114842;27;20027;-75
2022/12/31 14:44:02;;;;;;;11.43;7.00;;;;;;;;;;5107808;27;20079;-86
2022/12/31 14:46:31;;;;;;;11.35;6.90;;;;;;;;;;5120555;27;20034;-74
2022/12/31 14:49:02;;;;;;;16.10;7.55;;;;;;;;;;5114147;27;20107;-82
2022/12/31 14:51:29;;;;;;;20.15;7.75;;;;;;;;;;5109344;27;20139;-80
2022/12/31 14:53:56;;;;;;;12.55;7.15;;;;;;;;;;5112236;27;20034;-80
2022/12/31 14:56:37;;;;;;;10.32;6.72;;;;;;;;;;5116538;27;20029;-82
2022/12/31 14:59:21;;;;;;;12.57;7.15;;;;;;;;;;5116544;27;20086;-77
2022/12/31 15:01:47;;;;;;;13.13;7.20;;;;;;;;;;5113406;27;20015;-80
2022/12/31 15:04:14;;;;;;;14.73;7.75;;;;;;;;;;5107606;27;20030;-74
2022/12/31 15:06:47;;;;;;;15.10;7.15;;;;;;;;;;5108122;27;20015;-79